METAR Data
IDs: Format: Raw Decoded Include TAF

Data at: 0115 UTC 29 May 2022

ESKM 290050Z AUTO 29007KT 9999 FEW088/// 06/01 Q1006